»·PEaware :: AAL942 KPDX-KYKM

AAL942 :: KPDX-KYKM

FLIGHT INFORMATION

Flight Status: Arrived
Operator:
American Airlines
More flights by this operator :: More flights under this callsign
Pilot: Alex K. (14822)
Aircraft: BOEING 727-100
(B721)
More flights by this aircraft type
Origin: KPDX Portland Intl
United States
Destination: KYKM Yakima Air Term/Mcallister
United States
More flights between these airports :: More routes between these airports
Route: +PTLD1 BTG V448 YKM
File this flight plan on PilotEdge
Remarks: PBN / A1B2 NAV / RNVD1E2A1 DAT / V DOF / 180717 REG / N299SB RMK / NRP SIMBRIEF
Altitude:
(Current/Filed)
17,000ft
Speed:
(Current/Filed)
466kts
Departed: 16-Jul-18 07:56 PM
Arrived: 16-Jul-18 08:22 PM
Distance/Time
Traveled:
104nm/0:26
Distance/Time
To Go:
Arrived

Flight Plot

Page will automatically refresh every two minutes.

Flight plan parsing failed; only flown route is shown


Map Options




Map Legend


Flown Route
Filed Route
Departure Airport
Arrival Airport
Navaid (VOR, NDB)
Fix

Horizontal Profiles

Position Reports

Time Latitude Longitude Heading Altitude Ground
Speed
16-Jul-18 19:23 45.589415 -122.598943 0 41ft 0kts
16-Jul-18 19:24 45.589415 -122.598943 41 41ft 0kts
16-Jul-18 19:25 45.589415 -122.598943 41 41ft 0kts
16-Jul-18 19:26 45.589415 -122.598943 41 41ft 0kts
16-Jul-18 19:27 45.589415 -122.598943 41 41ft 0kts
16-Jul-18 19:28 45.589415 -122.598943 41 41ft 0kts
16-Jul-18 19:29 45.589415 -122.598943 41 41ft 0kts
16-Jul-18 19:30 45.589415 -122.598943 41 41ft 0kts
16-Jul-18 19:31 45.589415 -122.598943 41 41ft 0kts
16-Jul-18 19:32 45.589415 -122.598943 41 41ft 0kts
16-Jul-18 19:33 45.589415 -122.598943 41 41ft 0kts
16-Jul-18 19:34 45.589415 -122.598943 41 41ft 0kts
16-Jul-18 19:35 45.589415 -122.598943 41 41ft 0kts
16-Jul-18 19:36 45.589415 -122.598943 41 41ft 0kts
16-Jul-18 19:37 45.589415 -122.598943 41 41ft 0kts
16-Jul-18 19:38 45.589415 -122.598943 41 41ft 0kts
16-Jul-18 19:39 45.589415 -122.598943 41 41ft 0kts
16-Jul-18 19:40 45.589415 -122.598943 41 41ft 0kts
16-Jul-18 19:41 45.589415 -122.598943 41 41ft 0kts
16-Jul-18 19:42 45.589415 -122.598943 41 41ft 0kts
16-Jul-18 19:43 45.589415 -122.598943 41 41ft 0kts
16-Jul-18 19:44 45.589415 -122.598943 42 41ft 0kts
16-Jul-18 19:45 45.589280 -122.599118 41 41ft 2kts
16-Jul-18 19:46 45.588896 -122.599757 79 41ft 2kts
16-Jul-18 19:47 45.588959 -122.600209 118 41ft 0kts
16-Jul-18 19:48 45.588959 -122.600209 118 41ft 0kts
16-Jul-18 19:49 45.588959 -122.600209 118 41ft 0kts
16-Jul-18 19:50 45.588959 -122.600209 118 41ft 0kts
16-Jul-18 19:51 45.588959 -122.600209 118 41ft 0kts
16-Jul-18 19:52 45.588125 -122.598061 119 41ft 18kts
16-Jul-18 19:53 45.585803 -122.592912 128 41ft 14kts
16-Jul-18 19:54 45.583538 -122.588519 114 41ft 12kts
16-Jul-18 19:55 45.581002 -122.583777 200 41ft 12kts
16-Jul-18 19:56 45.580910 -122.584894 298 41ft 0kts
16-Jul-18 19:57 45.596253 -122.626463 293 1700ft 150kts
16-Jul-18 19:58 45.617631 -122.665795 10 2874ft 159kts
16-Jul-18 19:59 45.655023 -122.644470 19 3672ft 194kts
16-Jul-18 20:00 45.710542 -122.610295 35 4776ft 259kts
16-Jul-18 20:01 45.775872 -122.526615 58 8475ft 281kts
16-Jul-18 20:02 45.815417 -122.428151 59 11535ft 312kts
16-Jul-18 20:03 45.853042 -122.334892 60 13819ft 335kts
16-Jul-18 20:04 45.898646 -122.219955 60 16507ft 350kts
16-Jul-18 20:05 45.949602 -122.093243 59 17014ft 416kts
16-Jul-18 20:06 46.010594 -121.941372 59 17007ft 472kts
16-Jul-18 20:07 46.075766 -121.778312 59 16997ft 466kts
16-Jul-18 20:08 46.135905 -121.619460 68 16999ft 451kts
16-Jul-18 20:09 46.187876 -121.461224 61 16999ft 444kts
16-Jul-18 20:10 46.244206 -121.310419 62 16999ft 440kts
16-Jul-18 20:11 46.299166 -121.164540 61 16988ft 410kts
16-Jul-18 20:12 46.349571 -121.032148 61 16132ft 376kts
16-Jul-18 20:13 46.397686 -120.906004 60 14824ft 368kts
16-Jul-18 20:14 46.436627 -120.777492 90 13074ft 358kts
16-Jul-18 20:15 46.428257 -120.637460 104 10925ft 347kts
16-Jul-18 20:16 46.402399 -120.517425 107 9274ft 289kts
16-Jul-18 20:17 46.385686 -120.407091 74 6601ft 281kts
16-Jul-18 20:18 46.436784 -120.343741 355 5012ft 264kts
16-Jul-18 20:19 46.501484 -120.345419 345 4004ft 235kts
16-Jul-18 20:20 46.534247 -120.406906 290 2940ft 153kts
16-Jul-18 20:21 46.547236 -120.458198 291 2115ft 130kts
16-Jul-18 20:22 46.559088 -120.506280 291 1455ft 127kts
16-Jul-18 20:23 46.569768 -120.548417 290 1079ft 33kts
16-Jul-18 20:28 46.569508 -120.539650 57 1079ft 0kts
16-Jul-18 20:29 46.569508 -120.539650 57 1079ft 0kts
16-Jul-18 20:30 46.569508 -120.539650 57 1079ft 0kts
16-Jul-18 20:31 46.569508 -120.539650 57 1079ft 0kts
16-Jul-18 20:32 46.569508 -120.539650 57 1079ft 0kts

Navigation Log

Ident Type
Flight plan parsing failed, navigation log unavailable